createdAt,value
2018-12-20T00:00:06.722Z,0
2018-12-20T00:01:14.746Z,0
2018-12-20T00:02:22.918Z,0
2018-12-20T00:03:30.876Z,0
2018-12-20T00:04:39.054Z,0
2018-12-20T00:05:47.010Z,0
2018-12-20T00:06:55.050Z,0
2018-12-20T00:08:03.190Z,0
2018-12-20T00:09:11.221Z,0
2018-12-20T00:10:19.231Z,0
2018-12-20T00:11:27.270Z,0
2018-12-20T00:12:35.315Z,0
2018-12-20T00:13:43.360Z,0
2018-12-20T00:14:51.428Z,0
2018-12-20T00:15:59.465Z,0
2018-12-20T00:17:07.580Z,0
2018-12-20T00:18:15.570Z,0
2018-12-20T00:19:23.682Z,0
2018-12-20T00:20:31.774Z,0
2018-12-20T00:21:39.749Z,0
2018-12-20T00:22:47.795Z,0
2018-12-20T00:23:55.986Z,0
2018-12-20T00:25:03.986Z,0
2018-12-20T00:26:11.944Z,0
2018-12-20T00:27:20.092Z,0
2018-12-20T00:28:28.183Z,0
2018-12-20T00:29:36.123Z,0
2018-12-20T00:30:44.173Z,0
2018-12-20T00:31:52.224Z,0
2018-12-20T00:33:00.281Z,0
2018-12-20T00:34:08.566Z,0
2018-12-20T00:35:16.413Z,0
2018-12-20T00:36:24.455Z,0
2018-12-20T00:37:32.502Z,0
2018-12-20T00:38:40.550Z,0
2018-12-20T00:39:48.746Z,0
2018-12-20T00:40:56.788Z,0
2018-12-20T00:42:04.727Z,0
2018-12-20T00:43:12.804Z,0
2018-12-20T00:44:20.951Z,0
2018-12-20T00:45:28.882Z,0
2018-12-20T00:46:36.972Z,0
2018-12-20T00:47:45.058Z,0
2018-12-20T00:48:53.054Z,0
2018-12-20T00:50:01.110Z,0
2018-12-20T00:51:09.358Z,0
2018-12-20T00:52:17.213Z,0
2018-12-20T00:53:25.243Z,0
2018-12-20T00:54:33.320Z,0
2018-12-20T00:55:41.447Z,0
2018-12-20T00:56:49.454Z,0
2018-12-20T00:57:57.491Z,0
2018-12-20T00:59:05.581Z,0
2018-12-20T01:00:13.694Z,0
2018-12-20T01:01:21.663Z,0
2018-12-20T01:02:29.962Z,0
2018-12-20T01:03:37.760Z,0
2018-12-20T01:04:45.800Z,0
2018-12-20T01:05:53.943Z,0
2018-12-20T01:07:01.920Z,0
2018-12-20T01:08:10.020Z,0
2018-12-20T01:09:18.047Z,0
2018-12-20T01:10:26.120Z,0
2018-12-20T01:11:34.156Z,0
2018-12-20T01:12:42.216Z,0
2018-12-20T01:13:50.262Z,0
2018-12-20T01:14:58.360Z,0
2018-12-20T01:16:06.369Z,0
2018-12-20T01:17:14.509Z,0
2018-12-20T01:18:22.474Z,0
2018-12-20T01:19:30.578Z,0
2018-12-20T01:20:38.587Z,0
2018-12-20T01:21:46.637Z,0
2018-12-20T01:22:54.809Z,0
2018-12-20T01:24:02.831Z,0
2018-12-20T01:25:10.898Z,0
2018-12-20T01:26:18.872Z,0
2018-12-20T01:27:27.036Z,0
2018-12-20T01:28:34.946Z,0
2018-12-20T01:29:43.042Z,0
2018-12-20T01:30:51.076Z,0
2018-12-20T01:31:59.264Z,0
2018-12-20T01:33:07.344Z,0
2018-12-20T01:34:15.334Z,0
2018-12-20T01:35:23.383Z,0
2018-12-20T01:36:31.387Z,0
2018-12-20T01:37:39.442Z,0
2018-12-20T01:38:47.479Z,0
2018-12-20T01:39:55.529Z,0
2018-12-20T01:41:03.707Z,0
2018-12-20T01:42:11.706Z,0
2018-12-20T01:43:19.668Z,0
2018-12-20T01:44:27.729Z,0
2018-12-20T01:45:35.895Z,0
2018-12-20T01:46:43.854Z,0
2018-12-20T01:47:51.903Z,0
2018-12-20T01:49:00.059Z,0
2018-12-20T01:50:08.005Z,0
2018-12-20T01:51:16.185Z,0
2018-12-20T01:52:24.209Z,0
2018-12-20T01:53:32.170Z,0
2018-12-20T01:54:40.265Z,0
2018-12-20T01:55:48.297Z,0
2018-12-20T01:56:56.405Z,0
2018-12-20T01:58:04.451Z,0
2018-12-20T01:59:12.506Z,0
2018-12-20T02:00:20.513Z,0
2018-12-20T02:01:28.571Z,0
2018-12-20T02:02:36.847Z,0
2018-12-20T02:03:44.676Z,0
2018-12-20T02:04:52.727Z,0
2018-12-20T02:06:00.767Z,0
2018-12-20T02:07:08.830Z,0
2018-12-20T02:08:16.875Z,0
2018-12-20T02:09:25.125Z,0
2018-12-20T02:10:32.988Z,0
2018-12-20T02:11:41.047Z,0
2018-12-20T02:12:49.104Z,0
2018-12-20T02:13:57.337Z,0
2018-12-20T02:15:05.178Z,0
2018-12-20T02:16:13.434Z,0
2018-12-20T02:17:21.305Z,0
2018-12-20T02:18:29.381Z,0
2018-12-20T02:19:37.447Z,0
2018-12-20T02:20:45.469Z,0
2018-12-20T02:21:53.587Z,0
2018-12-20T02:23:01.717Z,0
2018-12-20T02:24:09.643Z,0
2018-12-20T02:25:17.702Z,0
2018-12-20T02:26:25.889Z,0
2018-12-20T02:27:33.815Z,0
2018-12-20T02:28:41.877Z,0
2018-12-20T02:29:49.926Z,0
2018-12-20T02:30:57.986Z,0
2018-12-20T02:32:06.020Z,0
2018-12-20T02:33:14.082Z,0
2018-12-20T02:34:22.187Z,0
2018-12-20T02:35:30.219Z,0
2018-12-20T02:36:38.447Z,0
2018-12-20T02:37:46.473Z,0
2018-12-20T02:38:54.338Z,0
2018-12-20T02:40:02.492Z,0
2018-12-20T02:41:10.597Z,0
2018-12-20T02:42:18.531Z,0
2018-12-20T02:43:26.575Z,0
2018-12-20T02:44:34.709Z,0
2018-12-20T02:45:42.733Z,0
2018-12-20T02:46:50.752Z,0
2018-12-20T02:47:58.794Z,0
2018-12-20T02:49:06.981Z,0
2018-12-20T02:50:14.887Z,0
2018-12-20T02:51:22.963Z,0
2018-12-20T02:52:31.032Z,0
2018-12-20T02:53:39.242Z,0
2018-12-20T02:54:47.166Z,0
2018-12-20T02:55:55.172Z,0
2018-12-20T02:57:03.236Z,0
2018-12-20T02:58:11.429Z,0
2018-12-20T02:59:19.433Z,0
2018-12-20T03:00:27.431Z,0
2018-12-20T03:01:35.489Z,0
2018-12-20T03:02:43.526Z,0
2018-12-20T03:03:51.567Z,0
2018-12-20T03:04:59.629Z,0
2018-12-20T03:06:07.687Z,0
2018-12-20T03:07:16.041Z,0
2018-12-20T03:08:23.941Z,0
2018-12-20T03:09:31.844Z,0
2018-12-20T03:10:40.032Z,0
2018-12-20T03:11:48.070Z,0
2018-12-20T03:12:56.187Z,0
2018-12-20T03:14:04.265Z,0
2018-12-20T03:15:19.793Z,0
2018-12-20T03:16:20.292Z,0
2018-12-20T03:17:28.232Z,0
2018-12-20T03:18:36.293Z,0
2018-12-20T03:19:44.332Z,0
2018-12-20T03:20:52.486Z,0
2018-12-20T03:22:00.501Z,0
2018-12-20T03:23:08.512Z,0
2018-12-20T03:24:16.591Z,0
2018-12-20T03:25:24.802Z,0
2018-12-20T03:26:32.674Z,0
2018-12-20T03:27:40.861Z,0
2018-12-20T03:28:48.793Z,0
2018-12-20T03:29:56.834Z,0
2018-12-20T03:31:05.109Z,0
2018-12-20T03:32:12.963Z,0
2018-12-20T03:33:21.013Z,0
2018-12-20T03:34:29.217Z,0
2018-12-20T03:35:37.103Z,0
2018-12-20T03:36:45.147Z,0
2018-12-20T03:37:53.245Z,0
2018-12-20T03:39:01.366Z,0
2018-12-20T03:40:09.456Z,0
2018-12-20T03:41:17.408Z,0
2018-12-20T03:42:25.572Z,0
2018-12-20T03:43:33.500Z,0
2018-12-20T03:44:41.724Z,0
2018-12-20T03:45:49.729Z,0
2018-12-20T03:46:57.690Z,0
2018-12-20T03:48:05.811Z,0
2018-12-20T03:49:13.775Z,0
2018-12-20T03:50:21.909Z,0
2018-12-20T03:51:30.054Z,0
2018-12-20T03:52:38.036Z,0
2018-12-20T03:53:46.084Z,0
2018-12-20T03:54:54.041Z,0
2018-12-20T03:56:02.157Z,0
2018-12-20T03:57:10.237Z,0
2018-12-20T03:58:18.209Z,0
2018-12-20T03:59:26.266Z,0
2018-12-20T04:00:34.316Z,0
2018-12-20T04:01:42.379Z,0
2018-12-20T04:02:50.650Z,0
2018-12-20T04:03:58.484Z,0
2018-12-20T04:05:06.650Z,0
2018-12-20T04:06:14.633Z,0
2018-12-20T04:07:22.656Z,0
2018-12-20T04:08:30.906Z,0
2018-12-20T04:09:38.784Z,0
2018-12-20T04:10:46.807Z,0
2018-12-20T04:11:55.053Z,0
2018-12-20T04:13:03.108Z,0
2018-12-20T04:14:11.136Z,0
2018-12-20T04:15:19.031Z,0
2018-12-20T04:16:27.088Z,0
2018-12-20T04:17:35.366Z,0
2018-12-20T04:18:43.334Z,0
2018-12-20T04:19:51.244Z,0
2018-12-20T04:20:59.546Z,0
2018-12-20T04:22:07.419Z,0
2018-12-20T04:23:15.388Z,0
2018-12-20T04:24:23.577Z,0
2018-12-20T04:25:31.708Z,0
2018-12-20T04:26:39.629Z,0
2018-12-20T04:27:47.660Z,0
2018-12-20T04:28:55.837Z,0
2018-12-20T04:30:03.765Z,0
2018-12-20T04:31:11.804Z,0
2018-12-20T04:32:19.845Z,0
2018-12-20T04:33:27.932Z,0
2018-12-20T04:34:36.086Z,0
2018-12-20T04:35:44.250Z,0
2018-12-20T04:36:52.110Z,0
2018-12-20T04:38:00.138Z,0
2018-12-20T04:39:08.188Z,0
2018-12-20T04:40:16.428Z,0
2018-12-20T04:41:24.306Z,0
2018-12-20T04:42:32.649Z,0
2018-12-20T04:43:40.419Z,0
2018-12-20T04:44:48.620Z,0
2018-12-20T04:45:56.751Z,0
2018-12-20T04:47:04.614Z,0
2018-12-20T04:48:12.637Z,0
2018-12-20T04:49:20.692Z,0
2018-12-20T04:50:28.878Z,0
2018-12-20T04:51:36.828Z,0
2018-12-20T04:52:44.932Z,0
2018-12-20T04:53:53.179Z,0
2018-12-20T04:55:00.968Z,0
2018-12-20T04:56:09.322Z,0
2018-12-20T04:57:17.129Z,0
2018-12-20T04:58:25.230Z,0
2018-12-20T04:59:33.186Z,0
2018-12-20T05:00:41.234Z,0
2018-12-20T05:01:49.291Z,0
2018-12-20T05:02:57.360Z,0
2018-12-20T05:04:05.434Z,0
2018-12-20T05:05:13.497Z,0
2018-12-20T05:06:21.879Z,0
2018-12-20T05:07:29.836Z,0
2018-12-20T05:08:37.876Z,0
2018-12-20T05:09:46.031Z,0
2018-12-20T05:10:53.874Z,0
2018-12-20T05:12:02.007Z,0
2018-12-20T05:13:09.873Z,0
2018-12-20T05:14:17.991Z,0
2018-12-20T05:15:26.333Z,0
2018-12-20T05:16:34.087Z,0
2018-12-20T05:17:42.189Z,0
2018-12-20T05:18:50.258Z,0
2018-12-20T05:19:58.468Z,0
2018-12-20T05:21:06.259Z,0
2018-12-20T05:22:14.274Z,0
2018-12-20T05:23:22.333Z,0
2018-12-20T05:24:30.475Z,0
2018-12-20T05:25:38.596Z,0
2018-12-20T05:26:46.550Z,0
2018-12-20T05:27:54.660Z,0
2018-12-20T05:29:02.801Z,0
2018-12-20T05:30:10.695Z,0
2018-12-20T05:31:18.711Z,0
2018-12-20T05:32:26.817Z,0
2018-12-20T05:33:34.822Z,0
2018-12-20T05:34:42.920Z,0
2018-12-20T05:35:50.980Z,0
2018-12-20T05:36:59.263Z,0
2018-12-20T05:38:07.042Z,0
2018-12-20T05:39:15.100Z,0
2018-12-20T05:40:23.787Z,0
2018-12-20T05:41:31.365Z,0
2018-12-20T05:42:39.283Z,0
2018-12-20T05:43:47.394Z,0
2018-12-20T05:44:55.370Z,0
2018-12-20T05:46:04.546Z,0
2018-12-20T05:47:11.678Z,0
2018-12-20T05:48:19.595Z,0
2018-12-20T05:49:27.678Z,0
2018-12-20T05:50:35.645Z,0
2018-12-20T05:51:43.710Z,0
2018-12-20T05:52:51.997Z,0
2018-12-20T05:53:59.845Z,0
2018-12-20T05:55:07.897Z,0
2018-12-20T05:56:16.706Z,0
2018-12-20T05:57:23.977Z,0
2018-12-20T05:58:32.279Z,0
2018-12-20T05:59:40.101Z,0
2018-12-20T06:00:48.426Z,0
2018-12-20T06:01:56.351Z,0
2018-12-20T06:03:04.368Z,0
2018-12-20T06:04:12.330Z,0
2018-12-20T06:05:20.613Z,0
2018-12-20T06:06:28.431Z,0
2018-12-20T06:07:36.499Z,0
2018-12-20T06:08:44.534Z,0
2018-12-20T06:09:55.998Z,0
2018-12-20T06:11:04.308Z,0
2018-12-20T06:12:08.768Z,0
2018-12-20T06:13:16.894Z,0
2018-12-20T06:14:25.180Z,0
2018-12-20T06:15:32.872Z,0
2018-12-20T06:16:40.940Z,0
2018-12-20T06:17:49.139Z,0
2018-12-20T06:18:57.042Z,0
2018-12-20T06:20:05.113Z,0
2018-12-20T06:21:13.154Z,0
2018-12-20T06:22:21.216Z,0
2018-12-20T06:23:29.257Z,0
2018-12-20T06:24:37.323Z,0
2018-12-20T06:25:45.358Z,0
2018-12-20T06:26:53.472Z,0
2018-12-20T06:28:01.498Z,0
2018-12-20T06:29:09.537Z,0
2018-12-20T06:30:17.586Z,0
2018-12-20T06:31:25.626Z,0
2018-12-20T06:32:33.713Z,0
2018-12-20T06:33:41.762Z,0
2018-12-20T06:34:49.796Z,0
2018-12-20T06:35:57.867Z,0
2018-12-20T06:37:05.907Z,0
2018-12-20T06:38:13.971Z,0
2018-12-20T06:39:22.049Z,0
2018-12-20T06:40:30.092Z,0
2018-12-20T06:41:38.139Z,4
2018-12-20T06:42:46.199Z,0
2018-12-20T06:43:54.256Z,0
2018-12-20T06:45:02.315Z,4
2018-12-20T06:46:10.342Z,4
2018-12-20T06:47:18.399Z,4
2018-12-20T06:48:26.470Z,8
2018-12-20T06:49:34.531Z,8
2018-12-20T06:50:42.589Z,8
2018-12-20T06:51:50.646Z,12
2018-12-20T06:52:58.694Z,16
2018-12-20T06:54:06.741Z,16
2018-12-20T06:55:14.800Z,20
2018-12-20T06:56:22.858Z,24
2018-12-20T06:57:30.923Z,28
2018-12-20T06:58:38.974Z,32
2018-12-20T06:59:47.019Z,40
2018-12-20T07:00:55.077Z,48
2018-12-20T07:02:03.214Z,52
2018-12-20T07:03:11.191Z,60
2018-12-20T07:04:19.248Z,68
2018-12-20T07:05:27.302Z,72
2018-12-20T07:06:35.329Z,76
2018-12-20T07:07:43.423Z,84
2018-12-20T07:08:51.466Z,100
2018-12-20T07:09:59.531Z,108
2018-12-20T07:11:07.574Z,116
2018-12-20T07:12:15.615Z,104
2018-12-20T07:13:23.691Z,108
2018-12-20T07:14:31.740Z,108
2018-12-20T07:15:39.799Z,116
2018-12-20T07:16:47.839Z,140
2018-12-20T07:17:55.894Z,148
2018-12-20T07:19:03.958Z,156
2018-12-20T07:20:12.024Z,176
2018-12-20T07:21:20.064Z,176
2018-12-20T07:22:28.126Z,176
2018-12-20T07:23:36.185Z,204
2018-12-20T07:24:44.231Z,204
2018-12-20T07:25:52.293Z,208
2018-12-20T07:27:00.419Z,228
2018-12-20T07:28:08.407Z,228
2018-12-20T07:29:16.474Z,240
2018-12-20T07:30:24.504Z,248
2018-12-20T07:31:32.571Z,304
2018-12-20T07:32:40.620Z,344
2018-12-20T07:33:48.681Z,384
2018-12-20T07:34:56.722Z,412
2018-12-20T07:36:04.766Z,464
2018-12-20T07:37:12.841Z,484
2018-12-20T07:38:20.904Z,500
2018-12-20T07:39:28.956Z,584
2018-12-20T07:40:38.136Z,656
2018-12-20T07:41:45.029Z,668
2018-12-20T07:42:53.119Z,624
2018-12-20T07:44:01.186Z,620
2018-12-20T07:45:09.216Z,616
2018-12-20T07:46:17.293Z,644
2018-12-20T07:47:25.319Z,624
2018-12-20T07:48:33.392Z,600
2018-12-20T07:49:41.446Z,660
2018-12-20T07:50:49.501Z,620
2018-12-20T07:51:57.565Z,688
2018-12-20T07:53:05.588Z,652
2018-12-20T07:54:13.668Z,652
2018-12-20T07:55:21.716Z,640
2018-12-20T07:56:29.783Z,588
2018-12-20T07:57:37.829Z,592
2018-12-20T07:58:45.891Z,724
2018-12-20T07:59:53.937Z,760
2018-12-20T08:01:02.000Z,776
2018-12-20T08:02:10.045Z,852
2018-12-20T08:03:18.122Z,868
2018-12-20T08:04:26.163Z,824
2018-12-20T08:05:34.229Z,780
2018-12-20T08:06:42.288Z,904
2018-12-20T08:07:50.344Z,968
2018-12-20T08:08:58.398Z,1120
2018-12-20T08:10:06.434Z,1004
2018-12-20T08:11:14.496Z,832
2018-12-20T08:12:22.569Z,948
2018-12-20T08:13:30.628Z,1020
2018-12-20T08:14:38.666Z,1496
2018-12-20T08:15:46.724Z,1384
2018-12-20T08:16:54.774Z,1432
2018-12-20T08:18:02.829Z,1380
2018-12-20T08:19:10.886Z,1260
2018-12-20T08:20:18.937Z,1336
2018-12-20T08:21:27.001Z,1416
2018-12-20T08:22:35.031Z,1380
2018-12-20T08:23:43.114Z,1560
2018-12-20T08:24:51.159Z,1896
2018-12-20T08:25:59.223Z,1640
2018-12-20T08:27:07.272Z,1904
2018-12-20T08:28:15.310Z,1732
2018-12-20T08:29:23.391Z,1688
2018-12-20T08:30:31.448Z,2016
2018-12-20T08:31:39.534Z,2160
2018-12-20T08:32:47.568Z,2312
2018-12-20T08:33:55.597Z,2652
2018-12-20T08:35:03.661Z,2452
2018-12-20T08:36:11.719Z,2576
2018-12-20T08:37:19.790Z,2608
2018-12-20T08:38:27.838Z,2464
2018-12-20T08:39:35.897Z,2280
2018-12-20T08:40:43.959Z,2088
2018-12-20T08:41:52.004Z,1960
2018-12-20T08:43:00.079Z,2052
2018-12-20T08:44:08.125Z,2092
2018-12-20T08:45:16.167Z,2176
2018-12-20T08:46:24.215Z,2124
2018-12-20T08:47:32.287Z,2104
2018-12-20T08:48:40.333Z,2372
2018-12-20T08:49:48.393Z,2412
2018-12-20T08:50:56.449Z,2680
2018-12-20T08:52:04.488Z,2680
2018-12-20T08:53:12.555Z,2868
2018-12-20T08:54:20.608Z,2844
2018-12-20T08:55:28.684Z,2656
2018-12-20T08:56:36.717Z,2508
2018-12-20T08:57:44.774Z,2884
2018-12-20T08:58:52.829Z,2436
2018-12-20T09:00:00.900Z,2276
2018-12-20T09:01:08.942Z,2184
2018-12-20T09:02:17.002Z,2828
2018-12-20T09:03:25.036Z,2868
2018-12-20T09:04:33.121Z,2680
2018-12-20T09:05:41.282Z,2704
2018-12-20T09:06:49.233Z,2684
2018-12-20T09:07:57.290Z,3016
2018-12-20T09:09:05.317Z,3200
2018-12-20T09:10:13.408Z,3316
2018-12-20T09:11:21.467Z,3260
2018-12-20T09:12:29.587Z,3628
2018-12-20T09:13:37.573Z,4272
2018-12-20T09:14:45.606Z,4248
2018-12-20T09:15:53.681Z,4028
2018-12-20T09:17:02.948Z,3892
2018-12-20T09:18:09.793Z,3996
2018-12-20T09:19:17.854Z,3964
2018-12-20T09:20:32.642Z,3860
2018-12-20T09:21:33.973Z,3888
2018-12-20T09:22:42.014Z,3768
2018-12-20T09:23:50.075Z,3512
2018-12-20T09:24:58.125Z,2984
2018-12-20T09:26:06.186Z,2788
2018-12-20T09:27:14.249Z,3028
2018-12-20T09:28:22.304Z,2828
2018-12-20T09:29:30.363Z,2676
2018-12-20T09:30:38.413Z,2752
2018-12-20T09:31:46.482Z,3208
2018-12-20T09:32:54.535Z,3636
2018-12-20T09:34:02.589Z,4216
2018-12-20T09:35:10.643Z,3804
2018-12-20T09:36:18.721Z,4292
2018-12-20T09:37:26.737Z,4564
2018-12-20T09:38:34.798Z,4876
2018-12-20T09:39:42.864Z,6288
2018-12-20T09:40:50.937Z,5960
2018-12-20T09:41:58.967Z,6712
2018-12-20T09:43:07.033Z,6124
2018-12-20T09:44:15.069Z,5268
2018-12-20T09:45:23.158Z,4748
2018-12-20T09:46:31.214Z,4832
2018-12-20T09:47:39.268Z,5192
2018-12-20T09:48:47.323Z,4796
2018-12-20T09:49:55.403Z,6276
2018-12-20T09:51:03.473Z,5588
2018-12-20T09:52:11.509Z,6388
2018-12-20T09:53:19.560Z,5668
2018-12-20T09:54:27.606Z,5804
2018-12-20T09:55:35.650Z,5232
2018-12-20T09:56:43.725Z,5508
2018-12-20T09:57:51.777Z,5228
2018-12-20T09:58:59.839Z,5336
2018-12-20T10:00:07.893Z,4952
2018-12-20T10:01:15.955Z,4144
2018-12-20T10:02:24.012Z,3332
2018-12-20T10:03:32.068Z,3260
2018-12-20T10:04:40.119Z,3172
2018-12-20T10:05:48.184Z,2988
2018-12-20T10:06:56.251Z,3220
2018-12-20T10:08:04.301Z,3480
2018-12-20T10:09:12.362Z,3652
2018-12-20T10:10:20.415Z,4600
2018-12-20T10:11:28.484Z,6180
2018-12-20T10:12:36.592Z,7464
2018-12-20T10:13:44.589Z,8760
2018-12-20T10:14:52.645Z,10400
2018-12-20T10:16:00.709Z,7296
2018-12-20T10:17:08.767Z,6920
2018-12-20T10:18:16.818Z,7784
2018-12-20T10:19:24.864Z,7820
2018-12-20T10:20:32.928Z,8872
2018-12-20T10:21:40.992Z,9400
2018-12-20T10:22:49.052Z,6268
2018-12-20T10:23:57.107Z,7580
2018-12-20T10:25:05.180Z,8112
2018-12-20T10:26:13.228Z,5520
2018-12-20T10:27:21.278Z,5964
2018-12-20T10:28:29.327Z,5548
2018-12-20T10:29:37.401Z,5300
2018-12-20T10:30:45.439Z,6436
2018-12-20T10:31:53.521Z,5252
2018-12-20T10:33:01.587Z,6676
2018-12-20T10:34:09.635Z,6064
2018-12-20T10:35:17.709Z,4512
2018-12-20T10:36:25.725Z,5324
2018-12-20T10:37:33.808Z,6072
2018-12-20T10:38:41.882Z,4912
2018-12-20T10:39:49.960Z,4476
2018-12-20T10:40:57.982Z,3852
2018-12-20T10:42:06.032Z,3752
2018-12-20T10:43:14.103Z,4448
2018-12-20T10:44:22.168Z,4440
2018-12-20T10:45:30.219Z,4452
2018-12-20T10:46:38.292Z,5464
2018-12-20T10:47:46.328Z,5868
2018-12-20T10:48:54.400Z,5376
2018-12-20T10:50:02.431Z,4116
2018-12-20T10:51:10.506Z,6136
2018-12-20T10:52:19.440Z,9276
2018-12-20T10:53:26.634Z,6636
2018-12-20T10:54:34.680Z,4216
2018-12-20T10:55:42.731Z,3900
2018-12-20T10:56:50.804Z,4160
2018-12-20T10:57:58.853Z,3304
2018-12-20T10:59:06.916Z,2928
2018-12-20T11:00:14.967Z,2548
2018-12-20T11:01:23.026Z,2576
2018-12-20T11:02:31.088Z,2908
2018-12-20T11:03:39.151Z,3884
2018-12-20T11:04:47.212Z,3960
2018-12-20T11:05:55.228Z,4120
2018-12-20T11:07:03.333Z,4988
2018-12-20T11:08:11.385Z,6460
2018-12-20T11:09:20.446Z,6280
2018-12-20T11:10:27.500Z,5052
2018-12-20T11:11:35.530Z,4988
2018-12-20T11:12:43.604Z,4692
2018-12-20T11:13:51.660Z,6120
2018-12-20T11:14:59.726Z,7792
2018-12-20T11:16:07.784Z,9832
2018-12-20T11:17:15.824Z,10396
2018-12-20T11:18:23.899Z,5876
2018-12-20T11:19:31.948Z,4200
2018-12-20T11:20:40.022Z,4484
2018-12-20T11:21:48.079Z,3376
2018-12-20T11:22:56.134Z,2972
2018-12-20T11:24:04.202Z,3324
2018-12-20T11:25:12.238Z,3804
2018-12-20T11:26:20.302Z,3908
2018-12-20T11:27:28.459Z,4724
2018-12-20T11:28:36.437Z,5724
2018-12-20T11:29:44.489Z,3896
2018-12-20T11:30:52.545Z,3496
2018-12-20T11:32:00.580Z,3252
2018-12-20T11:33:08.652Z,2808
2018-12-20T11:34:16.720Z,2564
2018-12-20T11:35:24.761Z,2836
2018-12-20T11:36:32.822Z,3160
2018-12-20T11:37:40.888Z,3308
2018-12-20T11:38:48.951Z,3608
2018-12-20T11:39:59.542Z,3712
2018-12-20T11:41:05.044Z,3752
2018-12-20T11:42:13.134Z,3916
2018-12-20T11:43:21.186Z,4256
2018-12-20T11:44:29.249Z,4152
2018-12-20T11:45:37.296Z,4400
2018-12-20T11:46:45.337Z,4752
2018-12-20T11:47:53.410Z,5068
2018-12-20T11:49:01.471Z,5324
2018-12-20T11:50:09.532Z,5360
2018-12-20T11:51:17.589Z,5352
2018-12-20T11:52:25.653Z,5332
2018-12-20T11:53:33.734Z,5336
2018-12-20T11:54:41.765Z,5452
2018-12-20T11:55:49.811Z,5588
2018-12-20T11:56:57.875Z,5312
2018-12-20T11:58:05.921Z,4964
2018-12-20T11:59:13.995Z,4676
2018-12-20T12:00:22.057Z,4584
2018-12-20T12:01:30.118Z,4752
2018-12-20T12:02:38.162Z,4900
2018-12-20T12:03:46.229Z,5112
2018-12-20T12:04:54.297Z,5204
2018-12-20T12:06:02.344Z,5236
2018-12-20T12:07:10.399Z,5336
2018-12-20T12:08:18.441Z,5508
2018-12-20T12:09:26.514Z,5716
2018-12-20T12:10:34.569Z,5864
2018-12-20T12:11:42.642Z,5888
2018-12-20T12:12:50.684Z,5800
2018-12-20T12:13:58.732Z,5876
2018-12-20T12:15:06.807Z,6120
2018-12-20T12:16:14.850Z,6084
2018-12-20T12:17:22.922Z,5908
2018-12-20T12:18:30.990Z,5744
2018-12-20T12:19:39.047Z,5616
2018-12-20T12:20:47.103Z,5684
2018-12-20T12:21:55.130Z,5724
2018-12-20T12:23:03.219Z,5892
2018-12-20T12:24:11.269Z,5936
2018-12-20T12:25:19.331Z,5924
2018-12-20T12:26:27.392Z,5640
2018-12-20T12:27:35.427Z,5396
2018-12-20T12:28:43.516Z,5196
2018-12-20T12:29:51.574Z,5152
2018-12-20T12:30:59.603Z,5140
2018-12-20T12:32:07.675Z,5176
2018-12-20T12:33:15.724Z,5240
2018-12-20T12:34:23.811Z,5244
2018-12-20T12:35:31.860Z,5188
2018-12-20T12:36:39.919Z,5080
2018-12-20T12:37:47.967Z,5028
2018-12-20T12:38:56.020Z,5036
2018-12-20T12:40:04.089Z,5040
2018-12-20T12:41:12.136Z,5076
2018-12-20T12:42:20.211Z,5100
2018-12-20T12:43:28.265Z,5120
2018-12-20T12:44:36.328Z,5044
2018-12-20T12:45:44.398Z,4848
2018-12-20T12:46:52.436Z,4676
2018-12-20T12:48:03.372Z,4468
2018-12-20T12:49:08.559Z,4340
2018-12-20T12:50:16.630Z,4148
2018-12-20T12:51:24.689Z,3968
2018-12-20T12:52:32.749Z,3820
2018-12-20T12:53:40.836Z,3660
2018-12-20T12:54:48.853Z,3488
2018-12-20T12:55:56.915Z,3416
2018-12-20T12:57:04.978Z,3516
2018-12-20T12:58:13.052Z,3704
2018-12-20T12:59:21.095Z,3840
2018-12-20T13:00:29.137Z,4128
2018-12-20T13:01:37.196Z,4204
2018-12-20T13:02:45.240Z,4388
2018-12-20T13:03:53.331Z,4492
2018-12-20T13:05:01.387Z,4556
2018-12-20T13:06:09.536Z,4320
2018-12-20T13:07:17.495Z,4280
2018-12-20T13:08:25.531Z,4064
2018-12-20T13:09:33.625Z,3828
2018-12-20T13:10:41.686Z,3876
2018-12-20T13:11:49.724Z,3920
2018-12-20T13:12:57.781Z,3312
2018-12-20T13:14:05.846Z,2932
2018-12-20T13:15:13.915Z,3252
2018-12-20T13:16:21.972Z,3316
2018-12-20T13:17:30.028Z,3720
2018-12-20T13:18:38.094Z,4108
2018-12-20T13:19:46.141Z,4376
2018-12-20T13:20:54.197Z,4972
2018-12-20T13:22:02.264Z,4740
2018-12-20T13:23:10.325Z,4712
2018-12-20T13:24:18.373Z,4112
2018-12-20T13:25:26.431Z,3548
2018-12-20T13:26:34.494Z,3216
2018-12-20T13:27:42.552Z,3200
2018-12-20T13:28:50.607Z,3528
2018-12-20T13:29:58.660Z,3752
2018-12-20T13:31:06.722Z,2540
2018-12-20T13:32:14.789Z,2696
2018-12-20T13:33:22.851Z,2752
2018-12-20T13:34:30.895Z,2544
2018-12-20T13:35:38.961Z,2404
2018-12-20T13:36:47.023Z,2724
2018-12-20T13:37:55.051Z,2464
2018-12-20T13:39:03.126Z,2212
2018-12-20T13:40:11.184Z,2256
2018-12-20T13:41:19.244Z,2088
2018-12-20T13:42:27.315Z,2416
2018-12-20T13:43:35.330Z,2672
2018-12-20T13:44:43.416Z,2956
2018-12-20T13:45:51.460Z,2980
2018-12-20T13:46:59.527Z,3088
2018-12-20T13:48:07.632Z,2800
2018-12-20T13:49:15.616Z,2428
2018-12-20T13:50:23.708Z,2224
2018-12-20T13:51:31.765Z,2052
2018-12-20T13:52:39.817Z,2016
2018-12-20T13:53:47.881Z,2072
2018-12-20T13:54:55.936Z,2080
2018-12-20T13:56:04.012Z,2028
2018-12-20T13:57:12.054Z,1976
2018-12-20T13:58:20.106Z,1968
2018-12-20T13:59:28.176Z,1956
2018-12-20T14:00:36.234Z,1972
2018-12-20T14:01:44.288Z,2036
2018-12-20T14:02:52.326Z,2136
2018-12-20T14:04:00.417Z,2272
2018-12-20T14:05:08.438Z,2460
2018-12-20T14:06:16.523Z,2564
2018-12-20T14:07:24.565Z,2572
2018-12-20T14:08:32.629Z,2416
2018-12-20T14:09:40.684Z,2460
2018-12-20T14:10:48.731Z,2620
2018-12-20T14:11:56.791Z,2548
2018-12-20T14:13:04.843Z,2672
2018-12-20T14:14:12.908Z,2680
2018-12-20T14:15:20.964Z,2680
2018-12-20T14:16:29.035Z,2620
2018-12-20T14:17:37.071Z,2488
2018-12-20T14:18:45.105Z,2360
2018-12-20T14:19:53.179Z,2264
2018-12-20T14:21:01.253Z,2156
2018-12-20T14:22:09.304Z,2024
2018-12-20T14:23:17.354Z,1868
2018-12-20T14:24:25.405Z,1696
2018-12-20T14:25:33.478Z,1524
2018-12-20T14:26:41.539Z,1464
2018-12-20T14:27:49.589Z,1364
2018-12-20T14:28:57.647Z,1308
2018-12-20T14:30:05.793Z,1264
2018-12-20T14:31:13.766Z,1240
2018-12-20T14:32:21.818Z,1184
2018-12-20T14:33:29.864Z,1160
2018-12-20T14:34:37.926Z,1148
2018-12-20T14:35:45.980Z,1124
2018-12-20T14:36:54.034Z,1156
2018-12-20T14:38:02.093Z,1240
2018-12-20T14:39:10.135Z,1244
2018-12-20T14:40:18.206Z,1356
2018-12-20T14:41:26.280Z,1308
2018-12-20T14:42:34.360Z,1312
2018-12-20T14:43:42.416Z,1336
2018-12-20T14:44:50.435Z,1300
2018-12-20T14:45:58.501Z,1256
2018-12-20T14:47:06.534Z,1184
2018-12-20T14:48:14.610Z,1136
2018-12-20T14:49:22.666Z,1088
2018-12-20T14:50:30.709Z,1048
2018-12-20T14:51:38.793Z,1016
2018-12-20T14:52:46.826Z,976
2018-12-20T14:53:54.868Z,912
2018-12-20T14:55:02.933Z,864
2018-12-20T14:56:11.004Z,808
2018-12-20T14:57:19.057Z,764
2018-12-20T14:58:27.172Z,748
2018-12-20T14:59:35.141Z,800
2018-12-20T15:00:43.228Z,752
2018-12-20T15:01:51.285Z,664
2018-12-20T15:02:59.315Z,608
2018-12-20T15:04:07.386Z,512
2018-12-20T15:05:15.431Z,432
2018-12-20T15:06:23.511Z,364
2018-12-20T15:07:31.556Z,316
2018-12-20T15:08:39.606Z,264
2018-12-20T15:09:47.668Z,300
2018-12-20T15:10:55.701Z,384
2018-12-20T15:12:03.797Z,416
2018-12-20T15:13:11.844Z,452
2018-12-20T15:14:19.894Z,412
2018-12-20T15:15:27.950Z,372
2018-12-20T15:16:36.011Z,372
2018-12-20T15:17:44.064Z,376
2018-12-20T15:18:52.124Z,384
2018-12-20T15:20:00.173Z,388
2018-12-20T15:21:08.224Z,368
2018-12-20T15:22:16.282Z,280
2018-12-20T15:23:24.337Z,236
2018-12-20T15:24:32.395Z,284
2018-12-20T15:25:40.453Z,292
2018-12-20T15:26:48.514Z,264
2018-12-20T15:27:56.558Z,244
2018-12-20T15:29:04.638Z,220
2018-12-20T15:30:12.685Z,204
2018-12-20T15:31:20.733Z,184
2018-12-20T15:32:28.788Z,160
2018-12-20T15:33:36.855Z,140
2018-12-20T15:34:44.887Z,120
2018-12-20T15:35:52.996Z,112
2018-12-20T15:37:01.025Z,92
2018-12-20T15:38:09.065Z,68
2018-12-20T15:39:17.141Z,60
2018-12-20T15:40:25.187Z,48
2018-12-20T15:41:33.234Z,44
2018-12-20T15:42:41.297Z,44
2018-12-20T15:43:49.348Z,44
2018-12-20T15:44:57.405Z,40
2018-12-20T15:46:05.433Z,28
2018-12-20T15:47:13.522Z,20
2018-12-20T15:48:21.674Z,16
2018-12-20T15:49:29.636Z,12
2018-12-20T15:50:37.682Z,12
2018-12-20T15:51:45.714Z,12